Time;durP1;ratioP1;P1;durP2;ratioP2;P2;SDS_P1;SDS_P2;PMS_P1;PMS_P2;Temp;Humidity;BMP_temperature;BMP_pressure;BME280_temperature;BME280_humidity;BME280_pressure;Samples;Min_cycle;Max_cycle;Signal;HPM_P1;HPM_P2
2023/01/17 00:00:04;;;;;;;8.07;1.65;;;4.00;99.90;;;;;;5034617;28;20413;-78
2023/01/17 00:02:50;;;;;;;25.77;4.18;;;4.00;99.90;;;;;;5054262;28;20056;-83
2023/01/17 00:11:48;;;;;;;13.40;3.28;;;4.00;99.90;;;;;;5052977;28;20143;-82
2023/01/17 00:14:34;;;;;;;13.07;1.63;;;4.00;99.90;;;;;;5035437;28;20049;-81
2023/01/17 00:17:22;;;;;;;8.18;1.48;;;4.00;99.90;;;;;;5054290;28;20131;-82
2023/01/17 00:26:24;;;;;;;6.93;0.93;;;4.10;99.90;;;;;;5052894;28;20056;-80
2023/01/17 01:35:24;;;;;;;10.45;1.50;;;4.30;99.90;;;;;;5052139;28;20045;-79
2023/01/17 01:38:11;;;;;;;8.52;1.70;;;4.30;99.90;;;;;;5055527;28;20049;-79
2023/01/17 01:40:57;;;;;;;13.90;2.25;;;4.40;99.90;;;;;;5051859;28;20535;-81
2023/01/17 01:43:45;;;;;;;10.48;1.70;;;4.40;99.90;;;;;;5037110;28;20059;-82
2023/01/17 01:46:40;;;;;;;9.23;1.42;;;4.40;99.90;;;;;;5052457;28;20063;-80
2023/01/17 01:49:27;;;;;;;16.17;2.30;;;4.40;99.90;;;;;;5038622;28;20056;-79
2023/01/17 01:52:14;;;;;;;17.38;1.92;;;4.40;99.90;;;;;;5037222;28;20397;-79
2023/01/17 01:55:05;;;;;;;10.55;1.85;;;4.60;99.90;;;;;;5053814;28;20056;-80
2023/01/17 01:57:55;;;;;;;10.27;2.13;;;4.60;99.90;;;;;;5053398;28;20136;-80
2023/01/17 02:00:41;;;;;;;15.93;1.75;;;4.60;99.90;;;;;;5050564;28;20404;-81
2023/01/17 02:03:30;;;;;;;9.45;1.63;;;4.60;99.90;;;;;;5037802;28;20059;-80
2023/01/17 02:06:32;;;;;;;15.52;1.85;;;4.60;99.90;;;;;;5037110;28;20504;-80
2023/01/17 02:09:19;;;;;;;9.88;1.90;;;4.60;99.90;;;;;;5052755;28;20048;-81
2023/01/17 02:12:06;;;;;;;3.50;0.80;;;4.60;99.90;;;;;;5052013;28;20390;-78
2023/01/17 02:14:52;;;;;;;7.00;1.15;;;4.50;99.90;;;;;;5045717;28;20045;-80
2023/01/17 02:17:44;;;;;;;10.63;1.45;;;4.50;99.90;;;;;;5036165;28;20139;-79
2023/01/17 02:21:01;;;;;;;14.45;1.95;;;4.50;99.90;;;;;;5038079;28;20053;-80
2023/01/17 02:24:02;;;;;;;10.35;2.03;;;4.50;99.90;;;;;;5050426;28;20633;-81
2023/01/17 02:27:13;;;;;;;12.23;1.75;;;4.60;99.90;;;;;;5053624;28;20060;-80
2023/01/17 02:30:20;;;;;;;12.43;1.30;;;4.60;99.90;;;;;;5051802;28;20049;-79
2023/01/17 02:33:25;;;;;;;12.10;1.60;;;4.50;99.90;;;;;;5038112;28;20150;-78
2023/01/17 02:36:24;;;;;;;11.80;2.05;;;4.50;99.90;;;;;;5051299;28;20045;-80
2023/01/17 02:39:23;;;;;;;11.68;1.40;;;4.60;99.90;;;;;;5051362;28;20059;-79
2023/01/17 02:42:15;;;;;;;11.00;1.77;;;4.60;99.90;;;;;;5050935;28;20068;-80
2023/01/17 02:45:02;;;;;;;10.48;1.52;;;4.70;99.90;;;;;;5050817;28;20053;-79
2023/01/17 02:47:48;;;;;;;13.90;3.55;;;4.70;99.90;;;;;;5052695;28;20106;-81
2023/01/17 02:51:02;;;;;;;11.05;2.17;;;4.60;99.90;;;;;;5036779;28;20152;-80
2023/01/17 02:54:13;;;;;;;12.70;1.77;;;4.60;99.90;;;;;;5019219;28;20052;-81
2023/01/17 02:57:08;;;;;;;14.05;1.70;;;4.70;99.90;;;;;;5019322;28;20159;-80
2023/01/17 03:00:09;;;;;;;;;;;4.70;99.90;;;;;;5051660;28;20095;-81
2023/01/17 03:03:25;;;;;;;10.45;2.10;;;4.60;99.90;;;;;;5033464;28;19924;-80
2023/01/17 03:06:17;;;;;;;8.52;1.55;;;4.60;99.90;;;;;;5049284;28;20057;-82
2023/01/17 03:09:04;;;;;;;11.70;1.65;;;4.50;99.90;;;;;;5050344;28;20127;-81
2023/01/17 03:11:51;;;;;;;13.75;2.55;;;4.50;99.90;;;;;;5054621;28;20107;-79
2023/01/17 03:14:37;;;;;;;14.38;2.13;;;4.60;99.90;;;;;;5020881;28;20060;-81
2023/01/17 03:17:28;;;;;;;11.15;1.85;;;4.50;99.90;;;;;;5049273;28;20045;-81
2023/01/17 03:20:15;;;;;;;14.43;3.60;;;4.50;99.90;;;;;;5049333;28;20143;-79
2023/01/17 03:23:01;;;;;;;10.90;1.70;;;4.50;99.90;;;;;;5019837;28;20583;-80
2023/01/17 03:25:47;;;;;;;13.25;2.53;;;4.50;99.90;;;;;;5051551;28;20041;-80
2023/01/17 03:28:33;;;;;;;18.83;2.88;;;4.50;99.90;;;;;;5031467;28;20080;-80
2023/01/17 03:31:19;;;;;;;14.88;1.75;;;4.50;99.90;;;;;;5050080;28;20489;-79
2023/01/17 03:34:05;;;;;;;7.85;1.27;;;4.40;99.90;;;;;;5056605;28;20053;-80
2023/01/17 03:36:53;;;;;;;9.82;1.25;;;4.30;99.90;;;;;;5051587;28;20045;-80
2023/01/17 03:39:39;;;;;;;11.65;1.70;;;4.30;99.90;;;;;;5039871;28;20064;-80
2023/01/17 03:42:27;;;;;;;8.25;1.25;;;4.20;99.90;;;;;;5054642;28;20053;-80
2023/01/17 03:45:13;;;;;;;13.73;1.20;;;4.20;99.90;;;;;;5053539;28;20107;-82
2023/01/17 03:48:00;;;;;;;6.82;0.85;;;4.20;99.90;;;;;;5054197;28;20053;-80
2023/01/17 03:50:50;;;;;;;9.35;1.25;;;4.20;99.90;;;;;;5054037;28;20049;-79
2023/01/17 03:53:36;;;;;;;11.75;1.80;;;4.20;99.90;;;;;;5060406;28;20064;-82
2023/01/17 03:56:22;;;;;;;8.10;1.48;;;4.20;99.90;;;;;;5054842;28;20139;-81
2023/01/17 03:59:08;;;;;;;7.32;1.52;;;4.20;99.90;;;;;;5040111;28;20060;-80
2023/01/17 04:01:54;;;;;;;6.78;1.05;;;4.20;99.90;;;;;;5035032;28;20072;-81
2023/01/17 04:04:40;;;;;;;7.82;1.20;;;4.20;99.90;;;;;;5055180;28;20056;-81
2023/01/17 04:07:27;;;;;;;11.05;1.23;;;4.10;99.90;;;;;;5054105;28;20504;-81
2023/01/17 04:10:13;;;;;;;6.47;1.20;;;4.10;99.90;;;;;;5037072;28;20103;-84
2023/01/17 04:12:59;;;;;;;6.80;1.15;;;4.10;99.90;;;;;;5056203;28;20045;-82
2023/01/17 04:15:48;;;;;;;7.70;0.98;;;4.10;99.90;;;;;;5035588;28;20045;-80
2023/01/17 04:18:35;;;;;;;12.85;2.05;;;4.10;99.90;;;;;;5052094;28;20044;-82
2023/01/17 04:21:21;;;;;;;7.05;1.00;;;4.10;99.90;;;;;;5035188;28;20186;-82
2023/01/17 04:24:07;;;;;;;7.65;1.23;;;4.20;99.90;;;;;;5053481;28;20049;-81
2023/01/17 04:26:53;;;;;;;8.95;1.13;;;4.20;99.90;;;;;;5053747;28;20103;-80
2023/01/17 04:29:39;;;;;;;10.32;1.20;;;4.20;99.90;;;;;;5056063;28;20052;-81
2023/01/17 04:32:28;;;;;;;7.93;1.02;;;4.20;99.90;;;;;;5053319;28;20056;-80
2023/01/17 04:35:14;;;;;;;5.70;1.30;;;4.00;99.90;;;;;;5035042;28;20053;-82
2023/01/17 04:38:01;;;;;;;6.50;1.33;;;4.00;99.90;;;;;;5053241;28;20049;-82
2023/01/17 04:40:47;;;;;;;5.68;1.15;;;3.90;99.90;;;;;;5053788;28;20048;-82
2023/01/17 04:43:33;;;;;;;9.10;0.80;;;3.90;99.90;;;;;;5053670;28;20052;-82
2023/01/17 04:46:20;;;;;;;7.90;1.25;;;3.80;99.90;;;;;;5054854;28;20928;-81
2023/01/17 04:49:06;;;;;;;10.63;1.15;;;3.70;99.90;;;;;;5057393;28;20472;-81
2023/01/17 04:51:52;;;;;;;10.77;0.93;;;3.60;99.90;;;;;;5051241;28;20060;-80
2023/01/17 04:54:38;;;;;;;8.00;1.15;;;3.60;99.90;;;;;;5040480;28;20122;-79
2023/01/17 04:57:24;;;;;;;9.63;1.40;;;3.50;99.90;;;;;;5053399;28;20426;-79
2023/01/17 05:00:11;;;;;;;10.65;1.63;;;3.60;99.90;;;;;;5053129;28;20401;-81
2023/01/17 05:02:57;;;;;;;6.55;0.95;;;3.80;99.90;;;;;;5053178;28;20576;-82
2023/01/17 05:05:43;;;;;;;2.75;0.77;;;3.90;99.90;;;;;;5057839;28;20397;-80
2023/01/17 05:08:29;;;;;;;8.02;1.30;;;4.10;99.90;;;;;;5052930;28;20045;-80
2023/01/17 05:11:16;;;;;;;6.40;0.90;;;4.20;99.90;;;;;;5038082;28;20052;-79
2023/01/17 05:14:03;;;;;;;8.32;1.13;;;4.10;99.90;;;;;;5039318;28;20527;-80
2023/01/17 05:16:55;;;;;;;9.68;0.90;;;4.00;99.90;;;;;;5035621;28;20500;-81
2023/01/17 05:19:41;;;;;;;9.98;1.10;;;4.00;99.90;;;;;;5052865;28;20059;-80
2023/01/17 05:22:27;;;;;;;8.88;1.40;;;4.00;99.90;;;;;;5053659;28;20049;-79
2023/01/17 05:25:14;;;;;;;9.55;1.80;;;3.90;99.90;;;;;;5055993;28;20045;-80
2023/01/17 05:28:00;;;;;;;5.40;0.88;;;4.00;99.90;;;;;;5034865;28;20055;-82
2023/01/17 05:30:46;;;;;;;9.75;1.40;;;3.90;99.90;;;;;;5051628;28;20478;-81
2023/01/17 05:33:32;;;;;;;4.05;0.50;;;3.90;99.90;;;;;;5051204;28;20044;-80
2023/01/17 05:36:18;;;;;;;4.07;0.40;;;3.90;99.90;;;;;;5050968;28;20048;-82
2023/01/17 05:39:05;;;;;;;8.55;2.15;;;3.90;99.90;;;;;;5036412;28;20045;-79
2023/01/17 05:41:51;;;;;;;3.53;0.80;;;3.80;99.90;;;;;;5053749;28;20056;-83
2023/01/17 05:44:37;;;;;;;3.47;0.82;;;3.80;99.90;;;;;;5041210;28;20045;-82
2023/01/17 05:47:23;;;;;;;4.10;0.50;;;3.80;99.90;;;;;;5052179;28;20040;-82
2023/01/17 05:50:12;;;;;;;3.80;0.70;;;3.80;99.90;;;;;;5051106;28;20091;-83
2023/01/17 05:53:04;;;;;;;4.22;0.55;;;3.80;99.90;;;;;;5021011;28;20056;-82
2023/01/17 05:55:50;;;;;;;7.55;0.85;;;3.80;99.90;;;;;;5052068;28;20126;-80
2023/01/17 05:58:36;;;;;;;5.22;0.73;;;3.80;99.90;;;;;;5040406;28;20064;-79
2023/01/17 06:01:22;;;;;;;5.45;0.93;;;3.70;99.90;;;;;;5055941;28;20580;-82
2023/01/17 06:04:08;;;;;;;3.85;0.73;;;3.70;99.90;;;;;;5036669;28;20061;-79
2023/01/17 06:06:54;;;;;;;3.40;0.60;;;3.80;99.90;;;;;;5037618;28;20056;-80
2023/01/17 06:09:41;;;;;;;6.85;0.75;;;3.80;99.90;;;;;;5052555;28;20071;-79
2023/01/17 06:12:27;;;;;;;3.72;0.70;;;3.80;99.90;;;;;;5037177;28;20068;-83
2023/01/17 06:15:15;;;;;;;5.20;0.95;;;3.80;99.90;;;;;;5040045;28;20049;-80
2023/01/17 06:18:10;;;;;;;3.55;0.57;;;3.80;99.90;;;;;;5054186;28;20049;-80
2023/01/17 06:20:56;;;;;;;4.93;0.98;;;3.80;99.90;;;;;;5054135;28;20099;-80
2023/01/17 06:23:43;;;;;;;8.32;0.90;;;3.80;99.90;;;;;;5057068;28;20074;-80
2023/01/17 06:26:29;;;;;;;7.10;1.00;;;3.80;99.90;;;;;;5060342;28;20079;-82
2023/01/17 06:29:16;;;;;;;8.20;0.90;;;3.70;99.90;;;;;;5044813;28;20088;-79
2023/01/17 06:32:02;;;;;;;4.90;0.70;;;3.60;99.90;;;;;;5059402;28;20045;-80
2023/01/17 06:34:48;;;;;;;4.32;0.82;;;3.50;99.90;;;;;;5059674;28;20045;-80
2023/01/17 06:37:34;;;;;;;0.63;0.40;;;3.40;99.90;;;;;;5039710;28;20072;-80
2023/01/17 06:40:21;;;;;;;4.03;0.20;;;3.40;99.90;;;;;;5058798;28;20072;-79
2023/01/17 06:43:07;;;;;;;1.80;0.10;;;3.20;99.90;;;;;;5054261;28;20080;-79
2023/01/17 06:45:54;;;;;;;2.50;0.65;;;3.20;99.90;;;;;;5051853;28;20049;-79
2023/01/17 06:48:42;;;;;;;4.22;0.65;;;3.20;99.90;;;;;;5051159;28;20053;-80
2023/01/17 06:51:28;;;;;;;4.35;0.47;;;3.20;99.90;;;;;;5050123;28;20440;-80
2023/01/17 06:54:14;;;;;;;10.77;1.17;;;3.20;99.90;;;;;;5051371;28;20098;-78
2023/01/17 06:57:00;;;;;;;3.72;0.47;;;3.20;99.90;;;;;;5053073;28;20136;-78
2023/01/17 06:59:46;;;;;;;6.05;0.60;;;3.10;99.90;;;;;;5056668;28;20051;-79
2023/01/17 07:02:33;;;;;;;5.28;0.57;;;3.00;99.90;;;;;;5049521;28;20063;-79
2023/01/17 07:05:19;;;;;;;3.33;0.75;;;3.00;99.90;;;;;;5049561;28;20420;-80
2023/01/17 07:08:05;;;;;;;4.72;1.42;;;3.00;99.90;;;;;;5049281;28;20052;-80
2023/01/17 07:10:57;;;;;;;6.80;0.88;;;3.10;99.90;;;;;;5050267;28;20056;-79
2023/01/17 07:13:44;;;;;;;1.98;0.65;;;3.20;99.90;;;;;;5050973;28;20060;-79
2023/01/17 07:16:30;;;;;;;2.03;0.13;;;3.20;99.90;;;;;;5051016;28;20061;-78
2023/01/17 07:19:16;;;;;;;1.85;0.10;;;3.10;99.90;;;;;;5052710;28;20132;-83
2023/01/17 07:22:02;;;;;;;2.13;0.47;;;3.10;99.90;;;;;;5035387;28;20064;-79
2023/01/17 07:24:48;;;;;;;1.25;0.30;;;3.00;99.90;;;;;;5050248;28;20045;-80
2023/01/17 07:27:34;;;;;;;3.10;0.38;;;3.00;99.90;;;;;;5050194;28;20056;-79
2023/01/17 07:30:20;;;;;;;2.65;0.30;;;3.00;99.90;;;;;;5050354;28;20703;-79
2023/01/17 07:33:07;;;;;;;5.75;0.57;;;3.00;99.90;;;;;;5050338;28;20053;-79
2023/01/17 07:35:53;;;;;;;2.55;0.80;;;3.00;99.90;;;;;;5051181;28;20076;-78
2023/01/17 07:38:42;;;;;;;3.78;0.50;;;3.00;99.90;;;;;;5032695;28;20126;-82
2023/01/17 07:41:33;;;;;;;3.58;0.50;;;3.00;99.90;;;;;;5052375;28;20048;-80
2023/01/17 07:44:19;;;;;;;6.60;0.88;;;3.00;99.90;;;;;;5049573;28;20049;-78
2023/01/17 07:47:05;;;;;;;2.47;0.82;;;2.90;99.90;;;;;;5050543;28;20462;-78
2023/01/17 07:49:51;;;;;;;3.13;0.77;;;3.00;99.90;;;;;;5049999;28;20489;-78
2023/01/17 07:52:37;;;;;;;6.03;0.73;;;3.00;99.90;;;;;;5048820;28;20048;-80
2023/01/17 07:55:24;;;;;;;4.40;0.60;;;3.00;99.90;;;;;;5033977;28;20049;-78
2023/01/17 07:58:10;;;;;;;7.05;0.60;;;3.00;99.90;;;;;;5030718;28;20057;-79
2023/01/17 08:01:03;;;;;;;2.28;0.70;;;3.10;99.90;;;;;;5039013;28;20482;-82
2023/01/17 08:03:53;;;;;;;3.83;0.85;;;3.10;99.90;;;;;;5048414;28;20088;-80
2023/01/17 08:06:42;;;;;;;7.95;0.85;;;3.10;99.90;;;;;;5050167;28;20412;-84
2023/01/17 08:09:29;;;;;;;5.90;0.90;;;3.10;99.90;;;;;;5050167;28;20049;-78
2023/01/17 08:12:15;;;;;;;7.85;1.48;;;3.10;99.90;;;;;;5049350;28;20092;-80
2023/01/17 08:15:01;;;;;;;4.13;1.20;;;3.30;99.90;;;;;;5050158;28;20077;-80
2023/01/17 08:17:51;;;;;;;4.72;1.30;;;3.50;99.90;;;;;;5052033;28;20049;-83
2023/01/17 08:20:38;;;;;;;6.57;0.93;;;3.60;99.90;;;;;;5017715;28;20053;-81
2023/01/17 08:23:24;;;;;;;4.03;0.52;;;3.60;99.90;;;;;;5050029;28;20563;-81
2023/01/17 08:26:20;;;;;;;6.25;0.40;;;3.70;99.90;;;;;;5053481;28;20049;-78
2023/01/17 08:29:06;;;;;;;3.95;0.40;;;3.70;99.90;;;;;;5039823;28;20082;-79
2023/01/17 08:31:53;;;;;;;4.25;0.55;;;3.50;99.90;;;;;;5035675;28;20135;-79
2023/01/17 08:34:39;;;;;;;8.43;0.70;;;3.30;99.90;;;;;;5040113;28;20048;-81
2023/01/17 08:37:25;;;;;;;5.10;0.70;;;3.10;99.90;;;;;;5053668;28;20084;-82
2023/01/17 08:40:11;;;;;;;3.10;0.77;;;2.90;99.90;;;;;;5053036;28;20598;-78
2023/01/17 08:42:59;;;;;;;7.32;0.75;;;2.90;99.90;;;;;;5053249;28;20060;-78
2023/01/17 08:45:47;;;;;;;3.65;0.57;;;2.90;99.90;;;;;;5052974;28;20140;-80
2023/01/17 08:48:33;;;;;;;4.82;0.85;;;3.00;99.90;;;;;;5055297;28;20071;-79
2023/01/17 08:51:19;;;;;;;5.97;1.05;;;3.10;99.90;;;;;;5053880;28;20060;-82
2023/01/17 08:54:05;;;;;;;10.35;1.92;;;3.20;99.90;;;;;;5053970;28;20377;-81
2023/01/17 08:56:51;;;;;;;7.35;0.70;;;3.40;99.90;;;;;;5052913;28;20139;-80
2023/01/17 08:59:37;;;;;;;5.78;1.02;;;3.50;99.90;;;;;;5053474;28;20045;-80
2023/01/17 09:02:24;;;;;;;11.05;1.10;;;3.70;99.90;;;;;;5051534;28;20443;-81
2023/01/17 09:05:10;;;;;;;8.38;1.10;;;3.80;99.90;;;;;;5053553;28;20053;-79
2023/01/17 09:07:56;;;;;;;14.88;1.20;;;3.80;99.90;;;;;;5056496;28;20109;-80
2023/01/17 09:10:43;;;;;;;6.88;0.90;;;3.90;99.90;;;;;;5051883;28;20135;-82
2023/01/17 09:13:29;;;;;;;1.30;0.30;;;3.90;99.90;;;;;;5053470;28;20832;-81
2023/01/17 09:16:15;;;;;;;1.80;0.30;;;4.10;99.90;;;;;;5052889;28;20041;-84
2023/01/17 09:19:01;;;;;;;1.38;0.20;;;3.80;99.90;;;;;;5052939;28;20051;-83
2023/01/17 09:21:47;;;;;;;1.90;0.20;;;3.50;99.90;;;;;;5051199;28;20045;-79
2023/01/17 09:24:33;;;;;;;1.83;0.20;;;3.30;99.90;;;;;;5052533;28;20504;-80
2023/01/17 09:27:19;;;;;;;0.43;0.10;;;3.00;99.90;;;;;;5036852;28;20060;-84
2023/01/17 09:30:06;;;;;;;1.05;0.20;;;2.70;99.90;;;;;;5054280;28;20049;-79
2023/01/17 09:32:55;;;;;;;0.52;0.10;;;2.50;99.90;;;;;;5052220;28;20055;-82
2023/01/17 09:35:41;;;;;;;0.63;0.13;;;2.50;99.90;;;;;;5052263;28;20044;-80
2023/01/17 09:38:27;;;;;;;1.45;0.43;;;2.40;99.90;;;;;;5052774;28;20052;-81
2023/01/17 09:41:36;;;;;;;0.63;0.13;;;2.40;99.90;;;;;;5050452;28;20044;-81
2023/01/17 09:44:41;;;;;;;1.55;0.22;;;2.50;99.90;;;;;;5034155;28;20497;-80
2023/01/17 09:47:42;;;;;;;0.50;0.10;;;2.60;99.90;;;;;;5050587;28;20041;-79
2023/01/17 09:50:46;;;;;;;1.17;0.30;;;2.70;99.90;;;;;;5051235;28;20092;-79
2023/01/17 09:53:36;;;;;;;0.77;0.22;;;2.80;99.90;;;;;;5055555;28;20084;-80
2023/01/17 09:56:41;;;;;;;3.08;0.40;;;2.80;99.90;;;;;;5038178;28;20154;-82
2023/01/17 10:00:12;;;;;;;1.73;0.32;;;3.00;99.90;;;;;;5037893;28;20401;-80
2023/01/17 10:03:20;;;;;;;5.28;0.38;;;3.10;99.90;;;;;;5043123;28;20049;-82
2023/01/17 10:06:41;;;;;;;1.33;0.30;;;3.10;99.90;;;;;;5033472;28;20408;-79
2023/01/17 10:09:36;;;;;;;0.63;0.20;;;3.00;99.90;;;;;;5051289;28;20049;-79
2023/01/17 10:12:38;;;;;;;1.08;0.43;;;3.00;99.90;;;;;;5052047;28;20098;-79
2023/01/17 10:15:37;;;;;;;0.55;0.10;;;2.90;99.90;;;;;;5043196;28;20048;-79
2023/01/17 10:19:02;;;;;;;4.63;0.20;;;2.80;99.90;;;;;;5052240;28;20045;-80
2023/01/17 10:22:09;;;;;;;2.00;0.40;;;2.80;99.90;;;;;;5034327;28;20278;-80
2023/01/17 10:25:13;;;;;;;1.38;0.35;;;2.80;99.90;;;;;;5051674;28;20528;-79
2023/01/17 10:28:15;;;;;;;3.33;0.40;;;2.80;99.90;;;;;;5037648;28;20061;-80
2023/01/17 10:31:19;;;;;;;7.72;0.73;;;2.70;99.90;;;;;;5051470;28;20087;-79
2023/01/17 10:34:17;;;;;;;3.25;0.95;;;2.70;99.90;;;;;;5051362;28;20049;-80
2023/01/17 10:37:33;;;;;;;3.03;0.60;;;2.80;99.90;;;;;;5051170;28;20131;-80
2023/01/17 10:40:40;;;;;;;3.85;0.35;;;2.80;99.90;;;;;;5051725;28;20056;-81
2023/01/17 10:43:29;;;;;;;6.93;0.60;;;3.00;99.90;;;;;;5051317;28;20111;-79
2023/01/17 10:46:21;;;;;;;4.95;0.30;;;3.00;99.90;;;;;;5051364;28;20068;-80
2023/01/17 10:49:23;;;;;;;2.05;0.60;;;3.30;99.90;;;;;;5018723;28;20126;-80
2023/01/17 10:52:46;;;;;;;4.18;1.00;;;3.80;99.90;;;;;;5056700;28;20091;-81
2023/01/17 10:56:01;;;;;;;2.47;0.50;;;4.10;99.90;;;;;;5051262;28;20064;-79
2023/01/17 10:58:49;;;;;;;2.28;0.50;;;4.40;99.90;;;;;;5052287;28;20053;-80
2023/01/17 11:01:35;;;;;;;3.45;0.60;;;5.10;99.90;;;;;;5051900;28;20057;-81
2023/01/17 11:04:28;;;;;;;5.80;0.77;;;5.90;99.90;;;;;;5036781;28;20055;-79
2023/01/17 11:07:18;;;;;;;1.95;0.57;;;6.20;99.90;;;;;;5038311;28;20065;-80
2023/01/17 11:10:04;;;;;;;3.03;1.45;;;6.60;99.90;;;;;;5037204;28;20047;-81
2023/01/17 11:12:51;;;;;;;15.65;2.15;;;6.90;99.90;;;;;;5053345;28;20048;-83
2023/01/17 11:15:38;;;;;;;1.58;0.35;;;7.10;99.90;;;;;;5058878;28;20045;-79
2023/01/17 11:18:28;;;;;;;4.28;0.70;;;7.40;99.90;;;;;;5050552;28;20045;-82
2023/01/17 11:21:23;;;;;;;6.10;0.82;;;7.90;99.90;;;;;;5050624;28;20738;-82
2023/01/17 11:24:18;;;;;;;5.20;1.02;;;8.30;99.90;;;;;;5036005;28;20053;-81
2023/01/17 11:27:06;;;;;;;3.63;0.60;;;8.80;99.90;;;;;;5050100;28;20091;-80
2023/01/17 11:30:18;;;;;;;4.00;1.23;;;8.80;99.90;;;;;;5049278;28;20452;-81
2023/01/17 11:33:44;;;;;;;2.53;0.50;;;9.00;99.90;;;;;;5053962;28;20049;-79
2023/01/17 11:36:31;;;;;;;2.42;0.77;;;8.80;99.90;;;;;;5032110;28;20048;-80
2023/01/17 11:39:18;;;;;;;6.43;0.70;;;8.60;99.90;;;;;;5049143;28;20052;-81
2023/01/17 11:42:25;;;;;;;7.15;0.70;;;7.80;99.90;;;;;;5050899;28;20164;-81
2023/01/17 11:45:25;;;;;;;1.45;0.45;;;7.30;99.90;;;;;;5049628;28;20049;-80
2023/01/17 11:48:14;;;;;;;3.10;0.40;;;7.00;99.90;;;;;;5050518;28;20045;-82
2023/01/17 11:51:01;;;;;;;3.30;0.50;;;7.10;99.90;;;;;;5054687;28;20402;-81
2023/01/17 11:53:48;;;;;;;4.43;0.57;;;7.90;99.90;;;;;;5049243;28;20142;-81
2023/01/17 11:56:36;;;;;;;9.52;1.13;;;8.80;99.90;;;;;;5050829;28;20049;-83
2023/01/17 11:59:36;;;;;;;4.65;0.60;;;9.30;99.40;;;;;;5035504;28;20200;-79
2023/01/17 12:02:44;;;;;;;3.08;0.70;;;8.90;99.30;;;;;;5053635;28;20072;-80
2023/01/17 12:05:57;;;;;;;4.85;0.73;;;9.60;99.20;;;;;;5054556;28;20041;-79
2023/01/17 12:08:55;;;;;;;3.03;0.80;;;10.10;96.60;;;;;;5044507;28;20045;-80
2023/01/17 12:15:05;;;;;;;4.75;1.25;;;10.90;96.80;;;;;;5053878;28;20500;-80
2023/01/17 12:18:16;;;;;;;4.45;0.70;;;10.40;95.70;;;;;;5054712;28;20092;-79
2023/01/17 12:21:20;;;;;;;4.10;0.82;;;10.00;96.50;;;;;;5053004;28;20049;-81
2023/01/17 12:24:12;;;;;;;10.07;1.38;;;8.60;98.00;;;;;;5052492;28;20120;-79
2023/01/17 12:27:04;;;;;;;10.02;1.80;;;7.50;99.90;;;;;;5054109;28;20084;-80
2023/01/17 12:30:23;;;;;;;3.38;0.50;;;7.40;99.90;;;;;;5054426;28;20045;-79
2023/01/17 12:33:33;;;;;;;6.95;0.73;;;8.10;99.90;;;;;;5034884;28;20057;-80
2023/01/17 12:36:25;;;;;;;5.32;2.03;;;9.00;99.20;;;;;;5039111;28;20164;-79
2023/01/17 12:39:13;;;;;;;5.97;0.93;;;9.70;98.50;;;;;;5052470;28;20041;-80
2023/01/17 12:42:18;;;;;;;5.60;0.80;;;10.40;98.10;;;;;;5053594;28;20067;-81
2023/01/17 12:45:09;;;;;;;3.35;0.60;;;10.70;95.80;;;;;;5053479;28;20122;-83
2023/01/17 12:48:03;;;;;;;2.35;0.70;;;10.70;95.20;;;;;;5039880;28;20109;-80
2023/01/17 12:51:17;;;;;;;6.78;1.63;;;10.50;94.90;;;;;;5057870;28;20107;-82
2023/01/17 12:54:23;;;;;;;6.13;1.15;;;10.80;94.40;;;;;;5053331;28;20053;-82
2023/01/17 12:57:17;;;;;;;4.68;0.60;;;10.70;94.10;;;;;;5051907;28;20524;-80
2023/01/17 13:00:16;;;;;;;9.85;0.80;;;10.40;94.10;;;;;;5053247;28;20111;-80
2023/01/17 13:03:06;;;;;;;4.18;0.70;;;9.90;94.30;;;;;;5039547;28;20053;-80
2023/01/17 13:05:56;;;;;;;7.22;0.80;;;10.10;95.50;;;;;;5040487;28;20045;-80
2023/01/17 13:08:48;;;;;;;3.17;0.68;;;9.80;95.40;;;;;;5056035;28;20048;-82
2023/01/17 13:11:45;;;;;;;4.63;1.10;;;9.60;95.50;;;;;;5053088;28;20053;-80
2023/01/17 13:14:31;;;;;;;7.15;1.10;;;9.90;95.50;;;;;;5052682;28;20529;-81
2023/01/17 13:17:33;;;;;;;5.22;0.75;;;10.10;95.20;;;;;;5052592;28;20049;-80
2023/01/17 13:20:42;;;;;;;5.38;1.10;;;9.80;94.90;;;;;;5052537;28;20057;-80
2023/01/17 13:23:43;;;;;;;7.75;0.75;;;9.60;95.10;;;;;;5052367;28;20053;-81
2023/01/17 13:26:44;;;;;;;5.63;0.60;;;9.10;95.10;;;;;;5051592;28;20049;-84
2023/01/17 13:29:48;;;;;;;4.95;0.73;;;8.60;97.20;;;;;;5053512;28;20061;-85
2023/01/17 13:32:51;;;;;;;2.95;0.63;;;8.60;97.30;;;;;;5053317;28;20110;-79
2023/01/17 13:35:41;;;;;;;6.07;1.17;;;8.70;98.20;;;;;;5052796;28;20049;-81
2023/01/17 13:38:54;;;;;;;5.20;0.60;;;8.10;98.20;;;;;;5053056;28;20049;-81
2023/01/17 13:41:59;;;;;;;6.57;1.00;;;7.40;97.60;;;;;;5033955;28;20052;-82
2023/01/17 13:44:45;;;;;;;5.45;1.13;;;7.00;99.90;;;;;;5051774;28;20576;-80
2023/01/17 13:47:37;;;;;;;7.00;0.90;;;6.90;99.90;;;;;;5052073;28;20051;-82
2023/01/17 13:50:48;;;;;;;2.20;0.50;;;7.00;99.90;;;;;;5055014;28;20048;-81
2023/01/17 13:53:34;;;;;;;2.15;0.40;;;7.20;99.70;;;;;;5052548;28;20095;-79
2023/01/17 13:56:25;;;;;;;3.33;0.52;;;7.20;99.30;;;;;;5052399;28;20043;-79
2023/01/17 13:59:26;;;;;;;6.47;0.57;;;7.60;99.30;;;;;;5052574;28;20056;-81
2023/01/17 14:02:30;;;;;;;6.38;0.70;;;7.50;98.00;;;;;;5037436;28;20129;-83
2023/01/17 14:05:37;;;;;;;8.27;0.80;;;7.40;98.60;;;;;;5052336;28;20045;-79
2023/01/17 14:08:26;;;;;;;3.53;0.52;;;7.00;99.20;;;;;;5055896;28;20100;-80
2023/01/17 14:11:14;;;;;;;6.82;0.77;;;6.80;99.30;;;;;;5034295;28;20555;-79
2023/01/17 14:14:38;;;;;;;3.72;0.50;;;6.80;99.70;;;;;;5051813;28;20118;-82
2023/01/17 14:17:26;;;;;;;3.45;0.60;;;6.50;99.90;;;;;;5052100;28;20049;-80
2023/01/17 14:20:14;;;;;;;2.00;0.43;;;6.10;99.90;;;;;;5036415;28;20053;-81
2023/01/17 14:23:13;;;;;;;3.13;0.50;;;6.10;99.90;;;;;;5052175;28;20053;-81
2023/01/17 14:26:12;;;;;;;2.53;0.77;;;6.30;99.90;;;;;;5051517;28;20187;-80
2023/01/17 14:29:57;;;;;;;2.97;0.63;;;6.90;99.90;;;;;;5054555;28;20052;-80
2023/01/17 14:33:04;;;;;;;2.97;0.55;;;7.60;98.80;;;;;;4970700;28;20141;-80
2023/01/17 14:35:54;;;;;;;2.20;0.50;;;7.90;99.00;;;;;;4970819;28;20094;-81
2023/01/17 14:38:43;;;;;;;3.40;0.40;;;8.00;98.40;;;;;;5051219;28;20053;-81
2023/01/17 14:41:29;;;;;;;6.10;0.60;;;7.50;99.20;;;;;;5050759;28;20463;-81
2023/01/17 14:44:16;;;;;;;3.95;1.10;;;7.30;99.60;;;;;;5034192;28;20045;-83
2023/01/17 14:47:02;;;;;;;5.78;0.82;;;7.20;99.40;;;;;;5052365;28;20045;-81
2023/01/17 14:50:07;;;;;;;3.10;0.70;;;7.20;99.90;;;;;;5050793;28;20142;-81
2023/01/17 14:53:11;;;;;;;4.25;0.88;;;6.80;99.60;;;;;;5032414;28;20496;-85
2023/01/17 14:56:11;;;;;;;2.15;0.98;;;6.10;99.90;;;;;;5053864;28;20041;-85
2023/01/17 14:59:20;;;;;;;22.73;2.88;;;6.20;99.90;;;;;;5053218;28;20056;-83
2023/01/17 15:02:14;;;;;;;2.55;0.60;;;6.20;99.90;;;;;;5050590;28;20778;-82
2023/01/17 15:05:00;;;;;;;6.43;1.73;;;6.10;99.90;;;;;;5051244;28;20512;-80
2023/01/17 15:07:51;;;;;;;9.55;0.60;;;6.10;99.90;;;;;;5051978;28;20080;-84
2023/01/17 15:11:06;;;;;;;6.00;0.88;;;6.40;99.90;;;;;;5050687;28;20136;-82
2023/01/17 15:13:56;;;;;;;3.15;0.65;;;5.90;99.90;;;;;;5050658;28;20133;-80
2023/01/17 15:16:42;;;;;;;3.30;0.60;;;6.00;99.90;;;;;;5019266;28;20396;-81
2023/01/17 15:19:42;;;;;;;4.13;1.08;;;6.50;99.90;;;;;;5050421;28;20098;-81
2023/01/17 15:22:29;;;;;;;4.07;0.70;;;6.30;99.90;;;;;;5050671;28;20049;-84
2023/01/17 15:25:17;;;;;;;2.35;0.50;;;6.00;99.90;;;;;;5039542;28;20059;-80
2023/01/17 15:28:05;;;;;;;3.22;0.60;;;5.50;99.90;;;;;;5050704;28;20148;-80
2023/01/17 15:31:14;;;;;;;9.15;1.02;;;5.10;99.90;;;;;;5050847;28;20049;-79
2023/01/17 15:34:06;;;;;;;6.57;0.80;;;4.80;99.90;;;;;;5032266;28;20140;-82
2023/01/17 15:36:56;;;;;;;6.72;0.60;;;4.50;99.90;;;;;;5036591;28;20048;-82
2023/01/17 15:39:42;;;;;;;1.70;0.50;;;4.30;99.90;;;;;;5054418;28;20084;-79
2023/01/17 15:42:30;;;;;;;5.95;0.60;;;4.10;99.90;;;;;;5053473;28;20045;-80
2023/01/17 15:45:26;;;;;;;9.57;0.75;;;3.90;99.90;;;;;;5055010;28;20041;-80
2023/01/17 15:48:37;;;;;;;8.50;1.70;;;3.80;99.90;;;;;;5053054;28;20047;-80
2023/01/17 15:51:36;;;;;;;7.60;1.00;;;3.70;99.90;;;;;;5038631;28;20053;-84
2023/01/17 15:54:39;;;;;;;5.93;0.90;;;3.60;99.90;;;;;;5058176;28;20512;-79
2023/01/17 15:57:34;;;;;;;5.22;0.88;;;3.50;99.90;;;;;;5054732;28;20513;-80
2023/01/17 16:00:38;;;;;;;2.57;0.53;;;3.40;99.90;;;;;;5054300;28;20410;-79
2023/01/17 16:03:30;;;;;;;3.67;1.35;;;3.40;99.90;;;;;;5053029;28;20055;-79
2023/01/17 16:06:48;;;;;;;3.85;1.02;;;3.30;99.90;;;;;;5052838;28;20055;-83
2023/01/17 16:09:42;;;;;;;4.20;0.60;;;3.20;99.90;;;;;;5022151;28;20048;-79
2023/01/17 16:12:28;;;;;;;9.00;0.70;;;3.20;99.90;;;;;;5054307;28;20056;-84
2023/01/17 16:15:15;;;;;;;3.13;0.55;;;3.10;99.90;;;;;;5055130;28;20633;-78
2023/01/17 16:18:06;;;;;;;2.97;0.70;;;3.00;99.90;;;;;;5061422;28;20459;-83
2023/01/17 16:21:15;;;;;;;3.63;0.65;;;3.00;99.90;;;;;;5054287;28;20080;-79
2023/01/17 16:24:02;;;;;;;7.28;1.02;;;2.90;99.90;;;;;;5053817;28;20489;-80
2023/01/17 16:26:48;;;;;;;5.35;1.10;;;2.90;99.90;;;;;;5053980;28;20045;-80
2023/01/17 16:29:34;;;;;;;5.03;1.33;;;2.80;99.90;;;;;;5053332;28;20065;-80